Time;durP1;ratioP1;P1;durP2;ratioP2;P2;SDS_P1;SDS_P2;PMS_P1;PMS_P2;Temp;Humidity;BMP_temperature;BMP_pressure;BME280_temperature;BME280_humidity;BME280_pressure;Samples;Min_cycle;Max_cycle;Signal;HPM_P1;HPM_P2
2022/06/27 00:01:33;;;;;;;1.27;0.77;;;26.80;53.10;;;;;;5108430;28;20073;-60
2022/06/27 00:04:00;;;;;;;1.08;0.70;;;26.80;53.10;;;;;;5108468;28;20055;-60
2022/06/27 00:06:28;;;;;;;0.70;0.70;;;26.80;53.10;;;;;;5108124;28;20124;-60
2022/06/27 00:08:55;;;;;;;1.85;0.82;;;26.80;53.20;;;;;;5106960;28;20125;-59
2022/06/27 00:11:22;;;;;;;0.77;0.77;;;26.80;53.20;;;;;;5107972;28;20089;-59
2022/06/27 00:13:49;;;;;;;2.25;0.90;;;26.80;53.20;;;;;;5108257;28;20460;-59
2022/06/27 00:16:17;;;;;;;1.02;0.93;;;26.80;53.20;;;;;;5108384;28;20052;-59
2022/06/27 00:19:04;;;;;;;1.90;1.17;;;26.80;53.30;;;;;;5107591;28;20052;-60
2022/06/27 00:21:31;;;;;;;0.90;0.88;;;26.80;53.30;;;;;;5108200;28;20126;-59
2022/06/27 00:23:58;;;;;;;0.77;0.77;;;26.80;53.30;;;;;;5107670;28;20524;-61
2022/06/27 00:26:26;;;;;;;0.65;0.63;;;26.80;53.30;;;;;;5108224;28;20453;-60
2022/06/27 00:28:53;;;;;;;0.70;0.70;;;26.70;53.30;;;;;;5107953;28;20054;-59
2022/06/27 00:31:21;;;;;;;0.50;0.50;;;26.70;53.30;;;;;;5108144;28;20052;-60
2022/06/27 00:33:48;;;;;;;1.10;0.82;;;26.70;53.40;;;;;;5107740;28;20075;-59
2022/06/27 00:36:15;;;;;;;1.05;0.90;;;26.70;53.40;;;;;;5107887;28;20079;-59
2022/06/27 00:38:42;;;;;;;0.75;0.75;;;26.70;53.50;;;;;;5107976;28;20093;-60
2022/06/27 00:41:10;;;;;;;1.17;1.08;;;26.70;54.00;;;;;;5107972;27;20044;-60
2022/06/27 00:43:37;;;;;;;0.68;0.68;;;26.70;53.50;;;;;;5112550;28;20051;-60
2022/06/27 00:46:04;;;;;;;0.90;0.90;;;26.70;53.50;;;;;;5112289;28;20048;-60
2022/06/27 00:48:31;;;;;;;0.95;0.80;;;26.70;53.60;;;;;;5111699;28;20050;-60
2022/06/27 00:50:58;;;;;;;1.48;0.80;;;26.70;53.60;;;;;;5112427;28;20123;-59
2022/06/27 00:53:28;;;;;;;0.80;0.80;;;26.60;53.50;;;;;;5112345;27;20089;-59
2022/06/27 00:55:56;;;;;;;0.70;0.70;;;26.70;53.60;;;;;;5111021;28;20082;-59
2022/06/27 00:58:23;;;;;;;0.73;0.70;;;26.70;53.70;;;;;;5111634;28;20079;-60
2022/06/27 01:00:50;;;;;;;0.70;0.70;;;26.60;53.60;;;;;;5113892;28;20048;-59
2022/06/27 01:03:18;;;;;;;1.17;1.05;;;26.60;53.60;;;;;;5110276;28;20047;-60
2022/06/27 01:05:52;;;;;;;0.70;0.70;;;26.70;53.80;;;;;;5110475;28;20089;-59
2022/06/27 01:08:20;;;;;;;0.65;0.65;;;26.60;53.70;;;;;;5111978;27;20097;-59
2022/06/27 01:10:48;;;;;;;0.95;0.80;;;26.60;53.70;;;;;;5110324;28;20101;-59
2022/06/27 01:13:16;;;;;;;0.68;0.68;;;26.60;53.70;;;;;;5111715;28;20051;-60
2022/06/27 01:15:45;;;;;;;1.77;1.02;;;26.60;53.80;;;;;;5111241;28;20105;-59
2022/06/27 01:18:13;;;;;;;2.20;0.80;;;26.60;53.80;;;;;;5110310;28;20089;-60
2022/06/27 01:20:45;;;;;;;0.52;0.52;;;26.60;53.80;;;;;;5111571;28;20135;-60
2022/06/27 01:23:13;;;;;;;2.38;1.00;;;26.60;53.80;;;;;;5111368;28;20051;-60
2022/06/27 01:25:41;;;;;;;0.80;0.80;;;26.60;54.40;;;;;;5110379;28;20047;-59
2022/06/27 01:28:09;;;;;;;0.80;0.80;;;26.60;53.90;;;;;;5111542;28;20445;-59
2022/06/27 01:30:36;;;;;;;2.58;1.20;;;26.60;53.80;;;;;;5109857;28;20482;-59
2022/06/27 01:33:03;;;;;;;0.70;0.70;;;26.60;53.90;;;;;;5111622;28;20075;-59
2022/06/27 01:35:31;;;;;;;0.75;0.75;;;26.60;53.90;;;;;;5111319;28;20134;-59
2022/06/27 01:37:58;;;;;;;0.88;0.88;;;26.50;53.80;;;;;;5111156;28;20047;-59
2022/06/27 01:40:26;;;;;;;3.60;1.00;;;26.60;53.90;;;;;;5111461;28;20086;-59
2022/06/27 01:42:55;;;;;;;1.70;0.90;;;26.50;53.90;;;;;;5111510;28;20043;-59
2022/06/27 01:45:22;;;;;;;1.80;0.73;;;26.50;53.90;;;;;;5111402;28;20399;-59
2022/06/27 01:47:49;;;;;;;0.77;0.77;;;26.50;53.90;;;;;;5110842;28;20047;-60
2022/06/27 01:50:19;;;;;;;0.85;0.85;;;26.50;53.90;;;;;;5110584;28;20130;-60
2022/06/27 01:52:49;;;;;;;0.73;0.73;;;26.50;53.90;;;;;;5110475;28;20084;-59
2022/06/27 01:55:18;;;;;;;0.80;0.80;;;26.50;54.00;;;;;;5111000;28;20070;-60
2022/06/27 01:57:47;;;;;;;0.68;0.68;;;26.50;54.00;;;;;;5110736;27;20047;-59
2022/06/27 02:00:15;;;;;;;0.80;0.80;;;26.50;54.00;;;;;;5110784;28;20105;-60
2022/06/27 02:02:44;;;;;;;0.88;0.88;;;26.50;54.00;;;;;;5110928;28;20341;-60
2022/06/27 02:05:12;;;;;;;0.93;0.90;;;26.50;54.00;;;;;;5110684;28;20060;-59
2022/06/27 02:07:42;;;;;;;0.65;0.65;;;26.50;54.00;;;;;;5110346;28;20593;-59
2022/06/27 02:10:09;;;;;;;;;;;26.50;54.10;;;;;;5109860;28;20052;-60
2022/06/27 02:12:36;;;;;;;0.85;0.85;;;26.50;54.10;;;;;;5110148;28;19950;-59
2022/06/27 02:15:04;;;;;;;0.75;0.75;;;26.50;54.10;;;;;;5110652;28;20117;-59
2022/06/27 02:17:31;;;;;;;0.77;0.77;;;26.50;54.10;;;;;;5110304;28;20100;-59
2022/06/27 02:20:00;;;;;;;0.90;0.90;;;26.50;54.20;;;;;;5110152;28;20048;-59
2022/06/27 02:22:29;;;;;;;0.98;0.70;;;26.50;54.20;;;;;;5110526;28;20044;-59
2022/06/27 02:24:56;;;;;;;0.70;0.70;;;26.50;54.20;;;;;;5109103;28;20076;-59
2022/06/27 02:27:24;;;;;;;0.60;0.60;;;26.50;54.20;;;;;;5110200;28;20039;-59
2022/06/27 02:29:51;;;;;;;0.98;0.65;;;26.50;54.30;;;;;;5110171;28;20085;-59
2022/06/27 02:32:18;;;;;;;0.70;0.70;;;26.50;54.20;;;;;;5110377;28;20177;-59
2022/06/27 02:34:48;;;;;;;0.93;0.80;;;26.50;54.20;;;;;;5110003;28;20044;-59
2022/06/27 02:37:17;;;;;;;;;;;26.40;54.20;;;;;;5110028;28;20079;-59
2022/06/27 02:39:46;;;;;;;0.90;0.90;;;26.50;54.30;;;;;;5108565;28;20443;-58
2022/06/27 02:42:14;;;;;;;0.88;0.88;;;26.40;54.20;;;;;;5109772;28;20071;-58
2022/06/27 02:44:42;;;;;;;2.25;0.77;;;26.50;54.30;;;;;;5108867;28;20116;-58
2022/06/27 02:47:10;;;;;;;1.05;1.05;;;26.50;54.30;;;;;;5109754;28;20075;-58
2022/06/27 02:49:38;;;;;;;0.60;0.60;;;26.50;54.30;;;;;;5108539;28;20089;-59
2022/06/27 02:52:16;;;;;;;0.90;0.90;;;26.50;54.30;;;;;;5108407;28;20101;-59
2022/06/27 02:55:02;;;;;;;0.68;0.68;;;26.40;54.30;;;;;;5109834;28;20043;-58
2022/06/27 02:57:50;;;;;;;0.85;0.85;;;26.40;54.20;;;;;;5108678;28;20087;-58
2022/06/27 03:00:26;;;;;;;1.50;0.77;;;26.40;54.20;;;;;;5109627;28;20047;-58
2022/06/27 03:02:54;;;;;;;0.90;0.90;;;26.40;54.30;;;;;;5108362;28;20092;-61
2022/06/27 03:05:23;;;;;;;0.60;0.60;;;26.40;54.30;;;;;;5108551;28;20502;-58
2022/06/27 03:07:50;;;;;;;0.80;0.80;;;26.40;54.20;;;;;;5109616;28;20121;-59
2022/06/27 03:10:18;;;;;;;0.80;0.80;;;26.40;54.30;;;;;;5109304;28;20514;-58
2022/06/27 03:12:45;;;;;;;0.82;0.82;;;26.40;54.30;;;;;;5109483;28;20067;-58
2022/06/27 03:15:12;;;;;;;0.70;0.70;;;26.40;54.30;;;;;;5109137;28;20044;-58
2022/06/27 03:17:40;;;;;;;0.75;0.75;;;26.40;54.30;;;;;;5109179;28;20079;-61
2022/06/27 03:20:08;;;;;;;0.93;0.93;;;26.40;54.20;;;;;;5109004;28;20503;-61
2022/06/27 03:22:35;;;;;;;1.00;0.88;;;26.40;54.20;;;;;;5109112;28;20075;-59
2022/06/27 03:25:02;;;;;;;0.75;0.75;;;26.50;54.30;;;;;;5109125;28;20548;-58
2022/06/27 03:27:29;;;;;;;0.85;0.85;;;26.50;54.30;;;;;;5107357;28;20048;-59
2022/06/27 03:29:58;;;;;;;0.70;0.70;;;26.50;54.30;;;;;;5100955;28;20072;-59
2022/06/27 03:32:25;;;;;;;1.38;0.90;;;26.50;54.20;;;;;;5096452;28;20118;-58
2022/06/27 03:34:52;;;;;;;0.82;0.82;;;26.50;54.20;;;;;;5099931;28;20039;-59
2022/06/27 03:37:20;;;;;;;1.05;0.70;;;26.50;54.20;;;;;;5096209;28;20080;-58
2022/06/27 03:39:47;;;;;;;0.90;0.90;;;26.50;54.10;;;;;;5103438;28;20459;-58
2022/06/27 03:42:14;;;;;;;0.60;0.60;;;26.50;54.10;;;;;;5101066;28;20778;-58
2022/06/27 03:44:41;;;;;;;0.98;0.98;;;26.50;54.00;;;;;;5094447;28;20093;-58
2022/06/27 03:47:09;;;;;;;0.60;0.60;;;26.60;54.00;;;;;;5097736;27;20051;-61
2022/06/27 03:52:24;;;;;;;0.80;0.80;;;26.60;53.90;;;;;;5087138;28;20131;-61
2022/06/27 03:54:51;;;;;;;1.35;1.02;;;26.60;53.80;;;;;;5088032;28;20454;-58
2022/06/27 03:57:18;;;;;;;0.80;0.80;;;26.60;53.80;;;;;;5087934;28;20521;-58
2022/06/27 03:59:45;;;;;;;2.05;0.90;;;26.70;53.80;;;;;;5087766;28;20040;-59
2022/06/27 04:02:14;;;;;;;0.85;0.85;;;26.70;53.70;;;;;;5088154;28;20052;-60
2022/06/27 04:04:42;;;;;;;1.80;0.70;;;26.70;53.60;;;;;;5087947;28;20066;-61
2022/06/27 04:07:09;;;;;;;1.63;1.00;;;26.80;53.60;;;;;;5088348;28;20075;-61
2022/06/27 04:09:36;;;;;;;0.73;0.73;;;26.70;53.50;;;;;;5087759;28;20079;-61
2022/06/27 04:12:04;;;;;;;0.50;0.50;;;26.80;53.50;;;;;;5087816;28;20052;-58
2022/06/27 04:14:31;;;;;;;0.90;0.90;;;26.80;53.40;;;;;;5087558;28;20047;-59
2022/06/27 04:16:58;;;;;;;0.77;0.77;;;26.90;53.40;;;;;;5087319;28;20480;-58
2022/06/27 04:19:25;;;;;;;1.25;1.00;;;26.90;53.30;;;;;;5087711;28;20048;-58
2022/06/27 04:21:52;;;;;;;0.80;0.80;;;26.90;53.30;;;;;;5087948;28;20055;-59
2022/06/27 04:24:20;;;;;;;1.08;0.70;;;27.00;53.30;;;;;;5087892;28;20073;-58
2022/06/27 04:26:47;;;;;;;0.80;0.80;;;27.00;53.20;;;;;;5106209;28;20051;-58
2022/06/27 04:29:15;;;;;;;0.55;0.55;;;27.00;53.20;;;;;;5108189;28;20051;-58
2022/06/27 04:31:42;;;;;;;1.00;1.00;;;27.00;53.00;;;;;;5108406;28;20108;-61
2022/06/27 04:34:12;;;;;;;1.50;0.90;;;27.00;52.90;;;;;;5107618;28;20052;-59
2022/06/27 04:36:40;;;;;;;0.70;0.70;;;27.10;52.90;;;;;;5095648;28;20527;-60
2022/06/27 04:39:08;;;;;;;0.70;0.70;;;27.10;52.80;;;;;;5093309;28;20090;-59
2022/06/27 04:41:35;;;;;;;0.80;0.80;;;27.10;52.70;;;;;;5087549;28;20048;-59
2022/06/27 04:44:03;;;;;;;1.20;1.13;;;27.10;52.60;;;;;;5087746;28;20553;-59
2022/06/27 04:46:31;;;;;;;0.93;0.93;;;27.10;52.60;;;;;;5087349;28;20075;-59
2022/06/27 04:48:58;;;;;;;0.95;0.93;;;27.20;52.60;;;;;;5087512;28;20054;-59
2022/06/27 04:51:26;;;;;;;0.80;0.80;;;27.20;52.60;;;;;;5087210;28;20446;-59
2022/06/27 04:53:53;;;;;;;0.70;0.70;;;27.20;52.50;;;;;;5090880;28;20052;-59
2022/06/27 04:56:20;;;;;;;2.15;1.00;;;27.20;52.40;;;;;;5091664;28;20105;-59
2022/06/27 04:58:47;;;;;;;0.82;0.80;;;27.20;52.40;;;;;;5095368;28;20044;-59
2022/06/27 05:01:15;;;;;;;0.80;0.80;;;27.20;52.30;;;;;;5092933;28;20054;-59
2022/06/27 05:03:42;;;;;;;0.80;0.80;;;27.30;52.30;;;;;;5093255;28;20419;-59
2022/06/27 05:06:10;;;;;;;0.98;0.90;;;27.30;52.30;;;;;;5085085;28;20084;-59
2022/06/27 05:08:37;;;;;;;0.75;0.75;;;27.20;52.40;;;;;;5088203;28;21783;-59
2022/06/27 05:11:05;;;;;;;0.90;0.90;;;27.10;52.70;;;;;;5087135;28;20492;-59
2022/06/27 05:13:32;;;;;;;1.23;1.00;;;27.00;53.10;;;;;;5098174;28;20040;-59
2022/06/27 05:15:59;;;;;;;1.23;1.00;;;26.80;53.50;;;;;;5104540;28;20441;-59
2022/06/27 05:18:27;;;;;;;1.33;1.23;;;26.50;54.00;;;;;;5095780;28;20048;-59
2022/06/27 05:20:54;;;;;;;1.40;1.30;;;26.20;54.70;;;;;;5100677;28;20078;-61
2022/06/27 05:23:21;;;;;;;2.08;1.50;;;25.90;54.60;;;;;;5094212;28;20504;-61
2022/06/27 05:25:49;;;;;;;2.53;1.98;;;25.60;54.50;;;;;;5088222;28;20089;-61
2022/06/27 05:28:16;;;;;;;6.82;1.90;;;25.40;54.50;;;;;;5090451;28;20770;-61
2022/06/27 05:30:43;;;;;;;5.10;1.98;;;25.10;54.10;;;;;;5095234;28;20050;-61
2022/06/27 05:33:10;;;;;;;1.98;1.88;;;24.90;53.90;;;;;;5092436;28;20525;-61
2022/06/27 05:35:37;;;;;;;3.20;1.60;;;24.70;52.90;;;;;;5095727;27;20082;-61
2022/06/27 05:38:05;;;;;;;1.70;1.45;;;24.30;52.90;;;;;;5089145;28;20138;-60
2022/06/27 05:40:33;;;;;;;1.63;1.52;;;24.00;52.70;;;;;;5086368;28;20052;-61
2022/06/27 05:43:00;;;;;;;1.95;1.85;;;23.70;52.70;;;;;;5092230;28;20051;-61
2022/06/27 05:45:29;;;;;;;5.05;2.10;;;23.40;52.80;;;;;;5085979;28;20097;-62
2022/06/27 05:48:03;;;;;;;3.78;2.08;;;23.10;52.70;;;;;;5088740;28;20048;-62
2022/06/27 05:50:31;;;;;;;2.92;2.00;;;22.80;53.20;;;;;;5093267;27;20050;-61
2022/06/27 05:52:59;;;;;;;2.17;2.03;;;22.50;54.70;;;;;;5090297;27;20050;-63
2022/06/27 05:55:32;;;;;;;3.53;1.90;;;22.40;54.80;;;;;;5087859;28;20043;-64
2022/06/27 05:58:02;;;;;;;4.85;2.40;;;22.20;55.30;;;;;;5091884;27;20051;-63
2022/06/27 06:00:29;;;;;;;3.88;2.25;;;22.10;59.90;;;;;;5095905;28;20079;-64
2022/06/27 06:02:57;;;;;;;7.25;2.55;;;22.20;61.60;;;;;;5091333;28;20083;-64
2022/06/27 06:05:25;;;;;;;2.78;2.58;;;22.30;61.90;;;;;;5089878;28;20052;-64
2022/06/27 06:07:52;;;;;;;3.58;2.42;;;22.40;61.80;;;;;;5089806;28;20105;-63
2022/06/27 06:10:21;;;;;;;3.30;2.42;;;22.50;61.40;;;;;;5090621;28;20056;-63
2022/06/27 06:12:50;;;;;;;4.65;3.03;;;22.50;60.20;;;;;;5090077;28;20129;-64
2022/06/27 06:15:18;;;;;;;2.58;2.38;;;22.50;56.90;;;;;;5087077;28;20563;-63
2022/06/27 06:17:46;;;;;;;6.93;2.80;;;22.40;56.80;;;;;;5085442;27;20047;-63
2022/06/27 06:20:14;;;;;;;4.22;2.78;;;22.20;57.20;;;;;;5095933;28;20048;-63
2022/06/27 06:22:43;;;;;;;4.28;3.00;;;22.10;57.90;;;;;;5091869;28;20564;-64
2022/06/27 06:25:10;;;;;;;3.10;2.80;;;22.00;58.30;;;;;;5090806;27;20048;-64
2022/06/27 06:27:38;;;;;;;3.60;3.22;;;21.90;58.80;;;;;;5103242;27;20047;-64
2022/06/27 06:30:07;;;;;;;3.13;2.83;;;21.80;59.20;;;;;;5091513;28;20050;-64
2022/06/27 06:32:37;;;;;;;3.30;2.63;;;21.80;59.50;;;;;;5090976;28;20105;-63
2022/06/27 06:35:05;;;;;;;4.65;3.08;;;21.70;59.80;;;;;;5089322;28;20488;-65
2022/06/27 06:37:33;;;;;;;2.80;2.45;;;21.70;60.10;;;;;;5088906;28;20090;-61
2022/06/27 06:40:02;;;;;;;4.40;2.42;;;21.60;60.40;;;;;;5089721;28;20073;-62
2022/06/27 06:42:30;;;;;;;3.72;2.50;;;21.60;60.50;;;;;;5089138;28;20721;-60
2022/06/27 06:44:57;;;;;;;2.50;2.28;;;21.60;61.00;;;;;;5093224;27;20740;-61
2022/06/27 06:47:25;;;;;;;3.45;2.58;;;21.50;61.00;;;;;;5093849;27;20547;-63
2022/06/27 06:49:53;;;;;;;4.80;2.20;;;21.50;61.30;;;;;;5085594;27;20499;-61
2022/06/27 06:52:20;;;;;;;6.45;2.80;;;21.50;61.40;;;;;;5091139;28;20081;-62
2022/06/27 06:54:50;;;;;;;5.20;3.22;;;21.50;61.70;;;;;;5086055;28;20083;-61
2022/06/27 06:57:18;;;;;;;4.40;3.30;;;21.50;62.70;;;;;;5088114;28;20044;-62
2022/06/27 06:59:45;;;;;;;5.70;3.03;;;21.50;62.40;;;;;;5089120;28;20093;-62
2022/06/27 07:02:13;;;;;;;4.70;2.40;;;21.50;62.80;;;;;;5090784;28;20100;-62
2022/06/27 07:04:40;;;;;;;3.63;2.67;;;21.50;62.90;;;;;;5091576;27;20135;-62
2022/06/27 07:07:09;;;;;;;3.33;2.33;;;21.50;63.10;;;;;;5089394;28;20036;-61
2022/06/27 07:09:36;;;;;;;1.92;1.80;;;21.60;63.20;;;;;;5089028;28;20072;-60
2022/06/27 07:12:04;;;;;;;2.47;2.28;;;21.70;62.90;;;;;;5092192;28;20071;-61
2022/06/27 07:14:31;;;;;;;2.53;2.22;;;21.70;63.00;;;;;;5093772;28;20082;-62
2022/06/27 07:16:58;;;;;;;4.63;2.03;;;21.70;63.00;;;;;;5088131;27;20052;-62
2022/06/27 07:19:26;;;;;;;2.78;2.58;;;21.70;63.00;;;;;;5085482;28;20048;-61
2022/06/27 07:21:54;;;;;;;2.45;1.98;;;21.70;63.10;;;;;;5094590;28;20105;-59
2022/06/27 07:24:21;;;;;;;2.60;1.98;;;21.60;63.20;;;;;;5084628;28;20393;-59
2022/06/27 07:26:49;;;;;;;3.33;2.38;;;21.60;63.40;;;;;;5091166;28;20103;-59
2022/06/27 07:29:16;;;;;;;2.45;2.25;;;21.60;63.60;;;;;;5087595;28;20158;-59
2022/06/27 07:31:44;;;;;;;3.33;1.90;;;21.60;63.70;;;;;;5090748;28;20056;-61
2022/06/27 07:34:12;;;;;;;2.97;2.05;;;21.50;63.90;;;;;;5091531;28;20036;-60
2022/06/27 07:36:39;;;;;;;3.10;1.83;;;21.60;64.30;;;;;;5089391;28;20044;-60
2022/06/27 07:39:07;;;;;;;3.55;2.15;;;21.50;64.00;;;;;;5090475;28;20044;-61
2022/06/27 07:41:35;;;;;;;4.22;1.98;;;21.60;64.10;;;;;;5098496;28;20443;-59
2022/06/27 07:44:03;;;;;;;2.33;2.13;;;21.60;64.10;;;;;;5090113;28;20040;-59
2022/06/27 07:46:31;;;;;;;3.03;1.85;;;21.70;64.20;;;;;;5086763;27;20071;-60
2022/06/27 07:48:59;;;;;;;2.05;1.95;;;21.70;64.00;;;;;;5099376;27;20097;-60
2022/06/27 07:51:27;;;;;;;3.38;1.55;;;21.70;63.70;;;;;;5093893;28;20494;-59
2022/06/27 07:53:54;;;;;;;2.42;1.77;;;21.70;63.50;;;;;;5085051;28;20101;-60
2022/06/27 07:56:23;;;;;;;3.45;2.38;;;21.70;63.50;;;;;;5093202;27;20076;-60
2022/06/27 07:59:10;;;;;;;1.67;1.58;;;21.70;63.40;;;;;;5092362;28;20172;-60
2022/06/27 08:01:38;;;;;;;1.85;1.55;;;21.80;63.10;;;;;;5093955;28;20105;-61
2022/06/27 08:04:07;;;;;;;3.17;1.77;;;21.80;62.90;;;;;;5091659;28;20142;-60
2022/06/27 08:06:35;;;;;;;2.00;1.85;;;21.80;62.80;;;;;;5092017;28;20105;-61
2022/06/27 08:09:05;;;;;;;1.75;1.60;;;21.80;62.70;;;;;;5090838;27;20040;-61
2022/06/27 08:11:35;;;;;;;3.72;1.60;;;21.70;62.20;;;;;;5097904;28;20044;-60
2022/06/27 08:14:05;;;;;;;1.80;1.70;;;21.80;62.00;;;;;;5092491;28;20100;-58
2022/06/27 08:16:35;;;;;;;3.00;1.80;;;21.80;62.00;;;;;;5089892;28;20079;-59
2022/06/27 08:19:03;;;;;;;3.28;1.60;;;21.70;62.10;;;;;;5091868;28;20071;-59
2022/06/27 08:21:31;;;;;;;2.03;1.92;;;21.70;62.30;;;;;;5088867;27;20047;-59
2022/06/27 08:24:03;;;;;;;2.67;1.70;;;21.70;62.20;;;;;;5090321;28;20129;-58
2022/06/27 08:26:31;;;;;;;1.92;1.83;;;21.70;62.00;;;;;;5073159;28;20048;-60
2022/06/27 08:28:59;;;;;;;1.50;1.40;;;21.70;62.10;;;;;;5084154;28;20071;-59
2022/06/27 08:31:27;;;;;;;1.67;1.45;;;21.70;61.80;;;;;;5096507;27;20055;-61
2022/06/27 08:33:58;;;;;;;2.78;1.60;;;21.70;62.10;;;;;;5089999;28;20139;-61
2022/06/27 08:36:27;;;;;;;3.65;1.63;;;21.70;61.80;;;;;;5092438;28;20047;-61
2022/06/27 08:39:02;;;;;;;1.95;1.80;;;21.80;65.30;;;;;;5091789;28;20503;-60
2022/06/27 08:41:30;;;;;;;1.90;1.60;;;22.00;64.90;;;;;;5090694;28;20085;-59
2022/06/27 08:44:00;;;;;;;1.85;1.48;;;22.20;64.50;;;;;;5087991;28;20078;-59
2022/06/27 08:46:30;;;;;;;1.80;1.70;;;22.40;64.00;;;;;;5094137;28;20054;-60
2022/06/27 08:48:57;;;;;;;1.50;1.40;;;22.50;63.60;;;;;;5095532;28;20248;-63
2022/06/27 08:51:26;;;;;;;2.00;1.63;;;22.60;60.60;;;;;;5088224;28;20160;-59
2022/06/27 08:53:54;;;;;;;1.90;1.80;;;22.60;60.40;;;;;;5087034;28;20153;-59
2022/06/27 08:56:22;;;;;;;1.23;1.23;;;22.50;60.20;;;;;;5088178;28;20380;-65
2022/06/27 08:58:51;;;;;;;1.40;1.30;;;22.50;62.60;;;;;;5087038;28;20402;-63
2022/06/27 09:01:22;;;;;;;3.83;2.00;;;22.50;63.70;;;;;;5084153;28;20345;-63
2022/06/27 09:04:03;;;;;;;1.85;1.75;;;22.70;63.30;;;;;;5093079;27;20548;-62
2022/06/27 09:06:54;;;;;;;3.63;1.30;;;22.70;63.00;;;;;;5093617;28;20047;-63
2022/06/27 09:09:24;;;;;;;1.77;1.67;;;22.90;63.00;;;;;;5089057;27;20496;-64
2022/06/27 09:11:52;;;;;;;1.85;1.75;;;22.90;62.40;;;;;;5096831;27;20051;-66
2022/06/27 09:14:43;;;;;;;2.00;1.90;;;23.00;62.40;;;;;;5091005;28;20051;-63
2022/06/27 09:17:14;;;;;;;1.23;1.23;;;23.10;62.10;;;;;;5094203;28;20530;-62
2022/06/27 09:19:57;;;;;;;1.83;1.67;;;23.10;62.00;;;;;;5093120;27;20101;-62
2022/06/27 09:22:28;;;;;;;1.80;1.70;;;23.20;61.70;;;;;;5094249;28;20044;-62
2022/06/27 09:25:06;;;;;;;1.75;1.63;;;23.20;61.70;;;;;;5095292;28;20472;-61
2022/06/27 09:27:44;;;;;;;1.38;1.27;;;23.20;61.50;;;;;;5093552;27;20052;-61
2022/06/27 09:30:23;;;;;;;3.65;1.80;;;23.20;61.20;;;;;;5093982;28;20044;-64
2022/06/27 09:32:53;;;;;;;1.27;1.27;;;23.20;61.30;;;;;;5078641;28;20101;-65
2022/06/27 09:35:31;;;;;;;1.27;1.20;;;23.20;61.30;;;;;;5096098;28;20075;-63
2022/06/27 09:38:03;;;;;;;1.70;1.60;;;23.30;61.10;;;;;;5091091;28;20048;-63
2022/06/27 09:40:33;;;;;;;1.60;1.50;;;23.30;61.00;;;;;;5093401;28;20695;-62
2022/06/27 09:43:07;;;;;;;1.10;1.10;;;23.30;60.80;;;;;;5088236;27;20484;-61
2022/06/27 09:45:35;;;;;;;1.40;1.40;;;23.30;60.70;;;;;;5091847;28;20605;-64
2022/06/27 09:48:06;;;;;;;1.33;1.23;;;23.30;60.80;;;;;;5094532;28;20126;-64
2022/06/27 09:50:39;;;;;;;1.50;1.40;;;23.30;60.90;;;;;;5090792;27;20071;-63
2022/06/27 09:53:07;;;;;;;1.80;1.70;;;23.30;60.60;;;;;;5090184;28;20062;-62
2022/06/27 09:55:38;;;;;;;1.95;1.52;;;23.30;60.50;;;;;;5090429;28;20093;-63
2022/06/27 09:58:07;;;;;;;1.50;1.30;;;23.30;60.60;;;;;;5089887;28;20148;-63
2022/06/27 10:00:36;;;;;;;2.28;1.38;;;23.30;60.30;;;;;;5093357;27;20047;-65
2022/06/27 10:03:05;;;;;;;3.10;1.55;;;23.30;60.40;;;;;;5095034;28;20063;-64
2022/06/27 10:05:43;;;;;;;2.13;0.90;;;23.30;60.50;;;;;;5094694;27;20046;-63
2022/06/27 10:08:12;;;;;;;1.75;1.65;;;23.30;60.40;;;;;;5095430;27;20459;-63
2022/06/27 10:11:10;;;;;;;3.38;1.52;;;23.20;60.50;;;;;;5096154;28;20055;-64
2022/06/27 10:13:40;;;;;;;1.58;1.48;;;23.20;60.70;;;;;;5093456;27;20503;-64
2022/06/27 10:16:15;;;;;;;1.48;1.38;;;23.20;60.50;;;;;;5092115;28;20052;-64
2022/06/27 10:19:03;;;;;;;2.92;1.60;;;23.20;60.50;;;;;;5088666;28;20087;-64
2022/06/27 10:21:41;;;;;;;1.60;1.48;;;23.20;60.50;;;;;;5095374;28;20104;-64
2022/06/27 10:24:29;;;;;;;1.30;1.30;;;23.20;60.50;;;;;;5090484;28;20044;-64
2022/06/27 10:26:58;;;;;;;1.55;1.45;;;23.20;60.30;;;;;;5090041;28;20532;-64
2022/06/27 10:29:37;;;;;;;1.87;1.70;;;23.20;60.10;;;;;;5088847;28;20117;-64
2022/06/27 10:32:07;;;;;;;1.70;1.60;;;23.20;60.00;;;;;;5094773;28;20100;-64
2022/06/27 10:35:06;;;;;;;1.75;1.30;;;23.20;59.70;;;;;;5087648;28;20048;-64
2022/06/27 10:37:36;;;;;;;2.65;1.75;;;23.20;59.70;;;;;;5089303;28;20124;-64
2022/06/27 10:40:43;;;;;;;2.33;1.60;;;23.20;59.60;;;;;;5090782;28;20055;-64
2022/06/27 10:43:41;;;;;;;1.42;1.33;;;23.20;59.60;;;;;;5097732;28;20094;-64
2022/06/27 10:46:39;;;;;;;1.20;1.20;;;23.10;59.70;;;;;;5094430;28;20044;-64
2022/06/27 10:49:18;;;;;;;2.05;1.38;;;23.10;59.70;;;;;;5097302;28;20044;-64
2022/06/27 10:51:46;;;;;;;1.63;1.52;;;23.10;59.50;;;;;;5094466;28;20075;-64
2022/06/27 10:54:14;;;;;;;1.80;1.70;;;23.10;59.60;;;;;;5090260;28;20105;-63
2022/06/27 10:56:50;;;;;;;1.45;1.45;;;23.10;59.40;;;;;;5091493;28;20043;-65
2022/06/27 10:59:55;;;;;;;1.52;1.42;;;23.10;59.60;;;;;;5085570;28;20051;-65
2022/06/27 11:02:27;;;;;;;1.77;1.67;;;23.00;59.80;;;;;;5090571;28;20106;-63
2022/06/27 11:04:55;;;;;;;1.50;1.40;;;23.00;60.00;;;;;;5087176;28;20089;-65
2022/06/27 11:07:24;;;;;;;1.48;1.38;;;23.10;60.10;;;;;;5090308;28;20511;-65
2022/06/27 11:09:51;;;;;;;2.15;1.50;;;23.10;60.00;;;;;;5087895;28;20047;-64
2022/06/27 11:12:23;;;;;;;1.50;1.40;;;23.10;60.00;;;;;;5100256;27;20478;-64
2022/06/27 11:14:52;;;;;;;1.75;1.65;;;23.10;60.00;;;;;;5089162;27;20043;-63
2022/06/27 11:17:33;;;;;;;2.10;1.90;;;23.10;60.20;;;;;;5090020;28;20053;-64
2022/06/27 11:20:21;;;;;;;1.60;1.50;;;23.20;60.30;;;;;;5092205;28;20520;-64
2022/06/27 11:23:06;;;;;;;1.73;1.63;;;23.10;60.20;;;;;;5092515;28;20326;-63
2022/06/27 11:25:34;;;;;;;1.65;1.55;;;23.10;60.30;;;;;;5087580;28;20098;-64
2022/06/27 11:33:41;;;;;;;1.88;1.77;;;23.20;60.60;;;;;;5085063;28;20130;-65
2022/06/27 11:36:12;;;;;;;1.60;1.52;;;23.20;60.60;;;;;;5088945;28;20047;-63
2022/06/27 11:38:48;;;;;;;1.83;1.73;;;23.20;60.70;;;;;;5091808;28;20055;-62
2022/06/27 11:41:28;;;;;;;1.63;1.52;;;23.20;60.70;;;;;;5086199;28;20048;-63
2022/06/27 11:44:07;;;;;;;1.80;1.60;;;23.20;60.80;;;;;;5090683;28;20558;-63
2022/06/27 11:46:45;;;;;;;1.63;1.52;;;23.20;60.80;;;;;;5091369;28;20036;-62
2022/06/27 11:49:16;;;;;;;3.42;1.40;;;23.20;60.80;;;;;;5096393;28;20082;-63
2022/06/27 11:51:48;;;;;;;1.40;1.40;;;23.20;61.00;;;;;;5091153;28;20136;-63
2022/06/27 11:54:19;;;;;;;1.67;1.58;;;23.20;60.90;;;;;;5097674;28;20047;-63
2022/06/27 11:56:49;;;;;;;1.70;1.60;;;23.20;60.80;;;;;;5090618;28;20580;-62
2022/06/27 11:59:18;;;;;;;1.80;1.70;;;23.20;60.80;;;;;;5092337;28;20074;-63
2022/06/27 12:01:55;;;;;;;1.33;1.30;;;23.20;60.60;;;;;;5107891;27;20445;-63
2022/06/27 12:04:28;;;;;;;1.80;1.70;;;23.20;60.70;;;;;;5092716;28;20058;-63
2022/06/27 12:07:05;;;;;;;2.05;1.83;;;23.20;60.60;;;;;;5091386;27;20043;-62
2022/06/27 12:09:50;;;;;;;2.33;1.58;;;23.20;60.60;;;;;;5090073;28;20079;-64
2022/06/27 12:12:25;;;;;;;1.38;1.38;;;23.20;60.60;;;;;;5087247;28;20130;-62
2022/06/27 12:14:55;;;;;;;1.38;1.27;;;23.20;60.50;;;;;;5098868;28;20051;-62
2022/06/27 12:17:23;;;;;;;1.65;1.60;;;23.20;60.50;;;;;;5095049;28;20047;-62
2022/06/27 12:20:06;;;;;;;1.70;1.60;;;23.20;60.40;;;;;;5095140;28;20086;-62
2022/06/27 12:22:33;;;;;;;1.92;1.83;;;23.20;60.50;;;;;;5094071;28;20079;-62
2022/06/27 12:25:16;;;;;;;1.70;1.60;;;23.20;60.40;;;;;;5107690;27;20101;-61
2022/06/27 12:27:43;;;;;;;1.65;1.55;;;23.20;60.40;;;;;;5096702;27;20103;-62
2022/06/27 12:30:11;;;;;;;2.17;2.08;;;23.20;60.30;;;;;;5094421;28;20295;-63
2022/06/27 12:32:41;;;;;;;1.70;1.60;;;23.20;60.40;;;;;;5085896;28;20504;-64
2022/06/27 12:35:09;;;;;;;1.95;1.85;;;23.20;60.40;;;;;;5090384;28;20077;-63
2022/06/27 12:37:41;;;;;;;2.33;2.22;;;23.20;60.60;;;;;;5090015;28;20051;-61
2022/06/27 12:40:10;;;;;;;2.15;2.05;;;23.20;61.20;;;;;;5098096;28;20054;-63
2022/06/27 12:42:38;;;;;;;2.27;2.07;;;23.20;61.30;;;;;;5092621;28;20052;-63
2022/06/27 12:45:06;;;;;;;1.98;1.88;;;23.20;61.30;;;;;;5093069;28;20303;-61
2022/06/27 12:47:33;;;;;;;2.22;2.03;;;23.30;61.50;;;;;;5089700;28;20055;-62
2022/06/27 12:50:00;;;;;;;2.22;2.03;;;23.30;61.10;;;;;;5088166;28;20040;-64
2022/06/27 12:52:28;;;;;;;2.00;1.90;;;23.30;60.90;;;;;;5087135;28;20047;-62
2022/06/27 12:54:55;;;;;;;2.03;1.92;;;23.30;60.70;;;;;;5082615;28;20108;-63
2022/06/27 12:57:22;;;;;;;2.83;1.92;;;23.30;60.80;;;;;;5085140;28;20473;-63
2022/06/27 12:59:49;;;;;;;2.95;2.10;;;23.40;60.70;;;;;;5086354;28;20097;-63
2022/06/27 13:02:17;;;;;;;2.45;2.30;;;23.30;60.40;;;;;;5089293;28;20058;-62
2022/06/27 13:04:44;;;;;;;2.10;2.00;;;23.30;60.40;;;;;;5092452;28;20456;-62
2022/06/27 13:07:11;;;;;;;2.10;2.00;;;23.40;60.30;;;;;;5088395;28;20064;-62
2022/06/27 13:09:39;;;;;;;2.00;1.90;;;23.30;60.40;;;;;;5086527;28;20039;-62
2022/06/27 13:12:07;;;;;;;2.92;2.15;;;23.30;60.40;;;;;;5087229;28;20067;-62